Llanfairfechan, United Kingdom
Current Conditions -  °F | °C
As of 3:50 PM on Thursday 30 Oct 2014 (Local Time) from EGOV Reporting Station
Broken Clouds Broken Clouds  
Wind Chill: 61°   Ceiling: 1000
Heat Index: 61°   Visibility: 6mi
Dew Point: 59°   Wind: 17mph
Humidity: 94%   Direction: 170°S
Pressure: 29.88"   Gusts: NA
Location:  53.26°N, 3.97°W
Report Text: EGOV 301550Z 17015KT 9999 BKN010 BKN040 16/15 Q1012 GRN NOSIG
Loading
Personal Weather Stations






























Interactive Weather Map New forecast layout! Learn more

10-Day Weather Forecast

Advertisements
Track Severe Weather on mobile